Time;durP1;ratioP1;P1;durP2;ratioP2;P2;SDS_P1;SDS_P2;PMS_P1;PMS_P2;Temp;Humidity;BMP_temperature;BMP_pressure;BME280_temperature;BME280_humidity;BME280_pressure;Samples;Min_cycle;Max_cycle;Signal;HPM_P1;HPM_P2
2023/10/03 00:01:38;;;;;;;8.00;4.82;;;;;;;26.45;55.98;99773.31;5096164;28;20450;-77
2023/10/03 00:04:07;;;;;;;7.50;5.57;;;;;;;26.44;56.11;99773.44;5096032;28;20484;-79
2023/10/03 00:06:33;;;;;;;9.13;5.85;;;;;;;26.44;56.34;99768.91;5095719;28;20075;-77
2023/10/03 00:08:59;;;;;;;8.20;5.18;;;;;;;26.43;56.45;99767.22;5095951;28;20632;-77
2023/10/03 00:11:25;;;;;;;7.32;4.93;;;;;;;26.41;56.61;99769.19;5096002;28;20028;-77
2023/10/03 00:13:50;;;;;;;8.15;5.60;;;;;;;26.39;56.54;99782.69;5096025;28;20024;-77
2023/10/03 00:16:17;;;;;;;7.80;5.63;;;;;;;26.37;56.78;99783.75;5095745;28;20377;-78
2023/10/03 00:18:43;;;;;;;7.13;5.57;;;;;;;26.39;56.60;99808.59;5095943;28;20032;-77
2023/10/03 00:21:08;;;;;;;7.05;4.88;;;;;;;26.37;56.51;99862.22;5094163;28;20035;-77
2023/10/03 00:23:34;;;;;;;7.10;5.30;;;;;;;26.35;56.32;99884.69;5095933;28;20027;-77
2023/10/03 00:25:59;;;;;;;7.90;5.20;;;;;;;26.32;56.32;99876.91;5094389;28;20123;-79
2023/10/03 00:28:29;;;;;;;8.02;5.22;;;;;;;26.29;55.54;99869.13;5094571;28;20024;-79
2023/10/03 00:30:55;;;;;;;8.32;5.10;;;;;;;26.29;55.56;99879.84;5095401;28;20024;-77
2023/10/03 00:33:25;;;;;;;6.53;4.60;;;;;;;26.27;55.61;99896.00;5095703;28;20452;-78
2023/10/03 00:35:51;;;;;;;7.10;5.22;;;;;;;26.27;55.10;99902.22;5095652;28;20133;-78
2023/10/03 00:38:17;;;;;;;7.38;5.00;;;;;;;26.25;55.68;99904.13;5095363;28;20023;-77
2023/10/03 00:40:55;;;;;;;7.07;4.65;;;;;;;26.25;55.29;99909.47;5095215;28;20480;-77
2023/10/03 00:43:21;;;;;;;8.85;5.80;;;;;;;26.25;55.58;99909.47;5095281;28;20016;-78
2023/10/03 00:45:48;;;;;;;7.80;5.28;;;;;;;26.23;55.46;99908.75;5095344;28;20437;-78
2023/10/03 00:48:15;;;;;;;7.50;5.47;;;;;;;26.22;55.45;99915.03;5094746;28;20464;-77
2023/10/03 00:50:42;;;;;;;7.00;4.93;;;;;;;26.22;55.36;99915.03;5094988;28;20585;-78
2023/10/03 00:53:08;;;;;;;6.07;4.65;;;;;;;26.21;55.15;99918.69;5093456;28;20036;-78
2023/10/03 00:55:36;;;;;;;6.43;5.05;;;;;;;26.21;55.38;99913.34;5093734;28;20400;-79
2023/10/03 00:58:07;;;;;;;6.22;4.90;;;;;;;26.22;54.97;99904.34;5094914;28;20024;-78
2023/10/03 01:00:40;;;;;;;7.40;5.22;;;;;;;26.21;55.05;99910.66;5094932;28;20035;-79
2023/10/03 01:03:24;;;;;;;6.40;4.80;;;;;;;26.22;54.91;99914.19;5094417;28;20254;-78
2023/10/03 01:05:51;;;;;;;6.40;4.90;;;;;;;26.20;54.80;99906.25;5094678;28;20024;-78
2023/10/03 01:08:16;;;;;;;6.88;5.22;;;;;;;26.19;55.27;99920.59;5094752;28;20024;-78
2023/10/03 01:10:41;;;;;;;6.60;5.13;;;;;;;26.20;54.86;99914.28;5094459;28;20484;-77
2023/10/03 01:13:13;;;;;;;6.63;4.85;;;;;;;26.19;55.32;99911.75;5094672;28;20035;-78
2023/10/03 01:15:40;;;;;;;7.93;4.72;;;;;;;26.16;55.32;99910.16;5094683;28;20024;-77
2023/10/03 01:18:09;;;;;;;7.88;4.97;;;;;;;26.16;55.20;99912.84;5094382;28;20024;-78
2023/10/03 01:20:40;;;;;;;7.63;4.78;;;;;;;26.16;55.50;99910.16;5094298;28;20026;-78
2023/10/03 01:23:14;;;;;;;6.30;4.65;;;;;;;26.16;55.24;99912.84;5094271;28;20073;-77
2023/10/03 01:25:43;;;;;;;6.47;4.97;;;;;;;26.14;55.12;99918.28;5094633;28;20028;-79
2023/10/03 01:28:13;;;;;;;6.80;5.35;;;;;;;26.16;55.07;99920.88;5094649;28;20028;-77
2023/10/03 01:30:43;;;;;;;6.95;5.10;;;;;;;26.13;55.83;99916.59;5094052;28;20504;-79
2023/10/03 01:33:10;;;;;;;6.38;4.88;;;;;;;26.16;55.13;99922.66;5093799;28;20028;-78
2023/10/03 01:35:35;;;;;;;6.72;4.78;;;;;;;26.16;55.45;99920.88;5092852;28;20077;-79
2023/10/03 01:38:01;;;;;;;7.00;5.07;;;;;;;26.15;55.51;99921.84;5094482;28;20032;-78
2023/10/03 01:40:27;;;;;;;8.10;5.10;;;;;;;26.15;55.20;99929.84;5094298;28;20036;-78
2023/10/03 01:42:53;;;;;;;6.15;4.97;;;;;;;26.13;55.60;99916.59;5094034;28;20024;-78
2023/10/03 01:45:27;;;;;;;7.82;5.05;;;;;;;26.13;55.23;99919.28;5092871;28;20034;-78
2023/10/03 01:47:54;;;;;;;6.68;4.65;;;;;;;26.13;55.39;99915.72;5093747;28;20048;-78
2023/10/03 01:50:20;;;;;;;6.57;4.93;;;;;;;26.15;55.50;99924.50;5094027;28;20042;-78
2023/10/03 01:52:47;;;;;;;8.45;5.10;;;;;;;26.15;55.56;99913.81;5093815;28;20035;-78
2023/10/03 01:55:14;;;;;;;6.75;4.88;;;;;;;26.15;55.29;99921.84;5092732;28;20034;-79
2023/10/03 01:57:41;;;;;;;7.00;4.93;;;;;;;26.14;55.58;99926.31;5092588;28;20071;-77
2023/10/03 02:03:12;;;;;;;7.57;5.30;;;;;;;26.12;55.52;99925.59;5070732;28;20051;-78
2023/10/03 02:05:38;;;;;;;6.88;4.75;;;;;;;26.13;55.16;99921.94;5070890;28;20112;-78
2023/10/03 02:08:07;;;;;;;9.05;4.95;;;;;;;26.12;55.62;99924.72;5051457;28;20032;-79
2023/10/03 02:10:37;;;;;;;7.85;5.65;;;;;;;26.13;55.30;99926.44;5051099;28;20036;-78
2023/10/03 02:13:09;;;;;;;7.38;5.50;;;;;;;26.13;55.29;99931.78;5051103;28;20087;-79
2023/10/03 02:15:36;;;;;;;8.02;5.40;;;;;;;26.11;55.58;99929.22;5066200;28;20400;-78
2023/10/03 02:18:05;;;;;;;7.82;5.25;;;;;;;26.13;55.48;99939.81;5070526;28;20028;-77
2023/10/03 02:20:31;;;;;;;7.13;5.22;;;;;;;26.12;55.27;99940.78;5070814;28;20041;-78
2023/10/03 02:22:57;;;;;;;7.20;5.35;;;;;;;26.11;55.68;99934.56;5070961;28;20031;-78
2023/10/03 02:25:27;;;;;;;8.18;5.40;;;;;;;26.12;55.29;99946.13;5071003;28;20484;-77
2023/10/03 02:27:55;;;;;;;7.78;5.10;;;;;;;26.11;55.19;99941.75;5068899;28;20048;-78
2023/10/03 02:30:27;;;;;;;9.13;6.20;;;;;;;26.12;55.54;99943.44;5050502;28;20040;-78
2023/10/03 02:32:54;;;;;;;8.10;5.80;;;;;;;26.12;55.30;99943.44;5051020;28;20044;-78
2023/10/03 02:35:22;;;;;;;8.18;5.50;;;;;;;26.12;55.18;99946.13;5070590;28;20028;-77
2023/10/03 02:37:49;;;;;;;7.15;5.40;;;;;;;26.11;55.66;99939.91;5073639;28;20024;-79
2023/10/03 02:40:15;;;;;;;8.02;5.70;;;;;;;26.12;55.53;99946.13;5093021;28;20492;-78
2023/10/03 02:42:41;;;;;;;6.57;4.72;;;;;;;26.11;55.02;99952.44;5093229;28;20487;-78
2023/10/03 02:45:08;;;;;;;8.93;5.78;;;;;;;26.11;55.16;99952.44;5092361;28;20112;-77
2023/10/03 02:47:36;;;;;;;8.95;6.15;;;;;;;26.13;55.23;99953.16;5093039;28;20020;-78
2023/10/03 02:50:01;;;;;;;7.05;5.22;;;;;;;26.08;55.55;99955.34;5093224;28;20043;-77
2023/10/03 02:52:27;;;;;;;7.90;5.78;;;;;;;26.10;55.38;99959.59;5092603;28;20472;-78
2023/10/03 02:54:52;;;;;;;7.72;5.60;;;;;;;26.10;55.19;99958.78;5092787;28;20028;-77
2023/10/03 02:57:18;;;;;;;7.30;5.70;;;;;;;26.07;55.74;99953.63;5092611;28;20024;-77
2023/10/03 02:59:44;;;;;;;8.27;6.03;;;;;;;26.08;55.24;99960.69;5091935;28;20085;-78
2023/10/03 03:02:14;;;;;;;8.20;5.97;;;;;;;26.08;55.04;99966.03;5092680;28;20476;-78
2023/10/03 03:04:41;;;;;;;7.38;5.70;;;;;;;26.07;55.34;99967.00;5091048;28;20050;-79
2023/10/03 03:07:06;;;;;;;8.23;5.78;;;;;;;26.07;55.51;99958.97;5092675;28;20092;-79
2023/10/03 03:09:35;;;;;;;7.22;5.75;;;;;;;26.08;55.44;99966.03;5092518;28;20009;-77
2023/10/03 03:12:01;;;;;;;7.60;6.03;;;;;;;26.07;55.18;99964.34;5092308;28;20036;-79
2023/10/03 03:14:27;;;;;;;8.07;6.32;;;;;;;26.07;55.33;99970.53;5092221;28;20016;-78
2023/10/03 03:16:53;;;;;;;8.88;6.40;;;;;;;26.08;55.14;99968.72;5091800;28;20480;-80
2023/10/03 03:19:20;;;;;;;8.15;5.82;;;;;;;26.06;55.51;99967.97;5092272;28;20068;-77
2023/10/03 03:21:46;;;;;;;7.53;5.60;;;;;;;26.05;55.39;99971.63;5091852;28;20020;-78
2023/10/03 03:24:17;;;;;;;7.38;5.97;;;;;;;26.05;55.02;99966.28;5092335;28;20585;-77
2023/10/03 03:26:47;;;;;;;8.30;6.65;;;;;;;26.05;55.30;99972.47;5092289;28;20043;-77
2023/10/03 03:29:22;;;;;;;8.93;6.80;;;;;;;26.06;55.15;99970.66;5092192;28;20511;-77
2023/10/03 03:31:50;;;;;;;9.82;7.38;;;;;;;26.03;55.34;99969.06;5091876;28;20027;-78
2023/10/03 03:34:16;;;;;;;10.55;7.72;;;;;;;26.05;54.98;99974.31;5092329;28;20503;-79
2023/10/03 03:36:41;;;;;;;9.35;7.88;;;;;;;26.04;54.96;99977.94;5092364;28;20024;-79
2023/10/03 03:39:15;;;;;;;9.82;7.60;;;;;;;26.04;55.21;99969.94;5092411;28;20057;-77
2023/10/03 03:41:42;;;;;;;9.30;7.55;;;;;;;26.03;55.35;99973.53;5092263;28;20047;-78
2023/10/03 03:44:13;;;;;;;11.20;7.72;;;;;;;26.03;55.11;99978.88;5091815;28;20060;-78
2023/10/03 03:46:40;;;;;;;10.65;8.52;;;;;;;26.03;55.09;99985.09;5092214;28;20016;-78
2023/10/03 03:49:08;;;;;;;10.32;7.68;;;;;;;26.03;55.48;99984.22;5092044;28;20032;-78
2023/10/03 03:51:34;;;;;;;10.77;9.02;;;;;;;26.01;55.05;99985.22;5092038;28;20036;-79
2023/10/03 03:54:00;;;;;;;10.05;8.38;;;;;;;26.01;55.03;99982.53;5092355;28;20025;-78
2023/10/03 03:56:25;;;;;;;10.80;8.43;;;;;;;26.00;55.27;99990.66;5091641;28;20050;-78
2023/10/03 03:58:51;;;;;;;12.40;9.10;;;;;;;26.03;54.83;99990.44;5090783;28;20467;-77
2023/10/03 04:01:19;;;;;;;12.13;9.07;;;;;;;26.02;55.14;99991.44;5092081;28;20054;-78
2023/10/03 04:03:49;;;;;;;10.85;8.77;;;;;;;26.00;55.01;99991.53;5091895;28;20046;-78
2023/10/03 04:06:15;;;;;;;12.77;9.50;;;;;;;25.99;54.99;99989.81;5092045;28;20491;-77
2023/10/03 04:08:40;;;;;;;10.20;8.68;;;;;;;25.99;54.86;99989.81;5091885;28;20032;-77
2023/10/03 04:11:10;;;;;;;12.15;9.77;;;;;;;26.00;55.29;99998.69;5091244;28;20078;-78
2023/10/03 04:13:49;;;;;;;12.05;9.65;;;;;;;26.00;55.29;99996.88;5092063;28;20051;-78
2023/10/03 04:16:20;;;;;;;12.55;9.68;;;;;;;25.98;55.30;99993.47;5091783;28;20024;-78
2023/10/03 04:18:49;;;;;;;11.23;9.27;;;;;;;25.98;55.30;99998.81;5092222;28;20028;-77
2023/10/03 04:21:15;;;;;;;10.95;8.73;;;;;;;25.99;55.14;100000.53;5091722;28;20051;-78
2023/10/03 04:23:42;;;;;;;13.63;9.57;;;;;;;25.99;55.27;100000.53;5091837;28;20028;-77
2023/10/03 04:26:08;;;;;;;12.45;9.82;;;;;;;25.99;54.95;100005.00;5091707;28;20032;-79
2023/10/03 04:28:33;;;;;;;12.27;9.60;;;;;;;25.97;54.79;100013.16;5095629;28;20028;-78
2023/10/03 04:30:59;;;;;;;11.27;9.57;;;;;;;25.96;54.94;100011.44;5094057;28;20024;-78
2023/10/03 04:33:25;;;;;;;11.25;9.80;;;;;;;25.95;54.89;100007.06;5095220;28;20031;-78
2023/10/03 04:35:51;;;;;;;11.13;9.65;;;;;;;25.98;54.79;100014.88;5095199;28;20038;-78
2023/10/03 04:38:17;;;;;;;11.75;9.40;;;;;;;25.97;55.03;100009.63;5094523;28;20400;-77
2023/10/03 04:40:43;;;;;;;12.38;9.68;;;;;;;25.95;55.03;100015.06;5095129;28;20103;-78
2023/10/03 04:43:12;;;;;;;11.57;9.90;;;;;;;25.95;54.69;100012.41;5095176;28;20028;-79
2023/10/03 04:45:39;;;;;;;11.70;9.43;;;;;;;25.97;54.68;100018.50;5089623;28;20028;-77
2023/10/03 04:48:05;;;;;;;11.80;9.95;;;;;;;25.95;54.84;100012.41;5094836;28;20020;-77
2023/10/03 04:50:31;;;;;;;11.15;9.32;;;;;;;25.97;54.84;100017.66;5095323;28;20104;-78
2023/10/03 04:52:57;;;;;;;11.45;9.32;;;;;;;25.95;55.00;100019.59;5095107;28;20493;-77
2023/10/03 04:55:23;;;;;;;12.32;9.63;;;;;;;25.97;54.69;100028.34;5094891;28;20060;-77
2023/10/03 04:57:50;;;;;;;13.07;9.93;;;;;;;25.95;55.36;100025.78;5095063;28;20494;-77
2023/10/03 05:00:17;;;;;;;12.00;9.32;;;;;;;25.94;55.54;100029.41;5094835;28;20433;-78
2023/10/03 05:02:47;;;;;;;11.68;9.68;;;;;;;25.96;54.99;100035.50;5091947;28;20403;-78
2023/10/03 05:05:18;;;;;;;11.43;8.75;;;;;;;26.01;54.98;100030.66;5090388;28;20027;-79
2023/10/03 05:07:52;;;;;;;10.23;8.88;;;;;;;25.98;54.86;100041.59;5094597;28;20031;-79
2023/10/03 05:10:18;;;;;;;10.73;8.68;;;;;;;25.98;55.21;100038.94;5093175;28;20031;-78
2023/10/03 05:12:45;;;;;;;13.50;9.50;;;;;;;25.98;54.95;100036.25;5094670;28;20024;-80
2023/10/03 05:15:12;;;;;;;11.40;8.75;;;;;;;25.98;54.82;100040.75;5094985;28;20039;-80
2023/10/03 05:17:38;;;;;;;11.88;9.27;;;;;;;26.00;54.79;100050.34;5094250;28;20046;-80
2023/10/03 05:20:05;;;;;;;12.80;9.32;;;;;;;26.01;54.61;100064.59;5094714;28;20510;-80
2023/10/03 05:22:32;;;;;;;9.63;8.63;;;;;;;25.99;54.99;100059.34;5093642;28;20103;-73
2023/10/03 05:24:58;;;;;;;10.63;8.60;;;;;;;25.99;54.56;100062.03;5090387;28;20016;-72
2023/10/03 05:27:24;;;;;;;11.10;9.10;;;;;;;26.05;54.82;100063.38;5093745;28;20020;-71
2023/10/03 05:29:51;;;;;;;13.40;9.15;;;;;;;26.06;54.96;100066.91;5094146;28;20031;-71
2023/10/03 05:32:17;;;;;;;15.63;10.00;;;;;;;26.06;55.33;100074.94;5093253;28;20345;-72
2023/10/03 05:34:43;;;;;;;16.45;10.50;;;;;;;26.09;55.42;100074.69;5094015;28;20024;-72
2023/10/03 05:37:08;;;;;;;17.23;9.63;;;;;;;26.09;56.01;100080.06;5093668;28;20032;-73
2023/10/03 05:39:34;;;;;;;15.65;10.57;;;;;;;26.08;56.65;100083.69;5092874;28;20035;-73
2023/10/03 05:42:00;;;;;;;16.88;9.95;;;;;;;26.06;56.82;100085.63;5093734;28;20012;-73
2023/10/03 05:44:26;;;;;;;14.05;9.55;;;;;;;26.04;56.99;100093.75;5093544;28;20056;-73
2023/10/03 05:46:57;;;;;;;15.45;10.07;;;;;;;26.01;57.02;100086.81;5091957;28;20048;-72
2023/10/03 05:49:24;;;;;;;12.05;8.77;;;;;;;26.05;56.40;100095.47;5091716;28;20593;-70
2023/10/03 05:51:51;;;;;;;16.42;10.07;;;;;;;26.06;56.08;100097.19;5093306;28;20053;-71
2023/10/03 05:54:17;;;;;;;16.08;9.63;;;;;;;26.08;55.85;100105.09;5093538;28;20026;-72
2023/10/03 05:56:44;;;;;;;13.02;8.38;;;;;;;26.09;55.70;100101.44;5093656;28;20103;-71
2023/10/03 05:59:09;;;;;;;15.55;9.15;;;;;;;26.14;55.40;100107.31;5093813;28;20773;-72
2023/10/03 06:01:34;;;;;;;14.73;9.18;;;;;;;26.11;55.90;100107.56;5093424;28;20048;-72
2023/10/03 06:04:00;;;;;;;12.38;8.90;;;;;;;26.08;56.18;100111.31;5093137;28;20040;-72
2023/10/03 06:06:28;;;;;;;13.63;8.85;;;;;;;26.09;55.83;100112.13;5093181;28;20388;-72
2023/10/03 06:08:54;;;;;;;13.20;9.70;;;;;;;26.05;56.22;100119.53;5092914;28;20032;-69
2023/10/03 06:11:19;;;;;;;14.05;8.82;;;;;;;26.03;56.30;100123.28;5093305;28;20084;-72
2023/10/03 06:13:45;;;;;;;12.38;9.05;;;;;;;26.05;55.71;100124.03;5093413;28;20141;-72
2023/10/03 06:16:17;;;;;;;11.98;8.70;;;;;;;26.03;55.99;100120.59;5093006;28;20514;-72
2023/10/03 06:18:42;;;;;;;13.20;9.18;;;;;;;26.01;56.16;100126.09;5093264;28;20020;-71
2023/10/03 06:21:08;;;;;;;12.80;9.60;;;;;;;25.98;56.19;100124.50;5093196;28;20484;-71
2023/10/03 06:23:39;;;;;;;11.98;8.88;;;;;;;25.98;55.88;100132.50;5092900;28;20476;-71
2023/10/03 06:26:04;;;;;;;11.00;8.88;;;;;;;25.97;55.85;100133.47;5093170;28;20036;-72
2023/10/03 06:28:30;;;;;;;15.05;9.60;;;;;;;25.99;55.77;100128.88;5093029;28;20036;-72
2023/10/03 06:30:55;;;;;;;11.00;8.73;;;;;;;25.95;55.97;100131.88;5092603;28;20067;-70
2023/10/03 06:33:21;;;;;;;12.57;8.45;;;;;;;25.97;55.85;100140.63;5092999;28;20396;-72
2023/10/03 06:35:51;;;;;;;11.70;8.40;;;;;;;25.95;56.09;100140.75;5092997;28;20056;-72
2023/10/03 06:38:18;;;;;;;13.15;9.05;;;;;;;25.97;55.52;100143.31;5092881;28;20027;-72
2023/10/03 06:40:44;;;;;;;10.73;8.50;;;;;;;25.97;55.34;100145.97;5092863;28;20031;-72
2023/10/03 06:43:09;;;;;;;11.38;9.00;;;;;;;25.97;55.46;100146.84;5092723;28;20048;-71
2023/10/03 06:45:35;;;;;;;12.75;9.20;;;;;;;25.96;55.59;100155.81;5092471;28;20053;-72
2023/10/03 06:48:03;;;;;;;11.82;8.75;;;;;;;25.98;55.17;100159.25;5092520;28;20055;-72
2023/10/03 06:50:30;;;;;;;10.20;8.45;;;;;;;25.93;55.43;100150.69;5092132;28;20035;-72
2023/10/03 06:52:55;;;;;;;12.13;8.82;;;;;;;25.96;55.38;100163.84;5091269;28;20038;-70
2023/10/03 06:55:20;;;;;;;12.70;9.15;;;;;;;25.97;55.08;100173.59;5092506;28;20380;-71
2023/10/03 06:57:46;;;;;;;11.02;8.80;;;;;;;25.96;55.51;100171.84;5092396;28;20504;-73
2023/10/03 07:00:14;;;;;;;11.30;8.65;;;;;;;25.96;55.23;100185.22;5092603;28;20023;-71
2023/10/03 07:02:40;;;;;;;10.38;8.63;;;;;;;25.95;55.03;100180.84;5092226;28;20019;-72
2023/10/03 07:05:07;;;;;;;10.63;8.80;;;;;;;25.94;55.22;100195.19;5091973;28;20116;-71
2023/10/03 07:07:33;;;;;;;10.90;8.55;;;;;;;25.92;55.30;100197.13;5092440;28;20020;-71
2023/10/03 07:09:58;;;;;;;12.32;8.55;;;;;;;25.91;55.35;100203.41;5092472;28;20055;-71
2023/10/03 07:12:24;;;;;;;12.70;9.02;;;;;;;25.92;55.19;100206.94;5092213;28;20480;-71
2023/10/03 07:14:50;;;;;;;12.27;8.32;;;;;;;25.93;55.21;100214.88;5092156;28;20089;-72
2023/10/03 07:17:16;;;;;;;10.48;8.75;;;;;;;25.94;54.91;100211.22;5091863;28;20055;-72
2023/10/03 07:19:43;;;;;;;10.88;8.77;;;;;;;25.94;54.85;100221.91;5092027;28;20122;-71
2023/10/03 07:22:09;;;;;;;11.45;8.48;;;;;;;25.93;55.14;100219.34;5090870;28;20032;-71
2023/10/03 07:24:34;;;;;;;10.55;8.85;;;;;;;25.92;55.22;100218.50;5092242;28;20396;-73
2023/10/03 07:27:03;;;;;;;11.43;8.18;;;;;;;25.91;55.09;100235.50;5091954;28;20036;-72
2023/10/03 07:29:29;;;;;;;9.98;8.00;;;;;;;25.91;54.86;100227.47;5092071;28;20016;-70
2023/10/03 07:31:54;;;;;;;10.15;8.55;;;;;;;25.96;54.46;100236.03;5092012;28;20510;-72
2023/10/03 07:34:21;;;;;;;9.80;8.00;;;;;;;25.96;54.47;100235.19;5091744;28;20032;-71
2023/10/03 07:36:46;;;;;;;10.75;8.13;;;;;;;25.97;54.45;100248.47;5090468;28;20026;-72
2023/10/03 07:39:13;;;;;;;10.45;8.65;;;;;;;25.96;54.64;100243.22;5091809;28;20095;-70
2023/10/03 07:41:39;;;;;;;10.90;7.85;;;;;;;25.92;54.70;100245.25;5091484;28;20028;-71
2023/10/03 07:44:04;;;;;;;10.05;8.13;;;;;;;25.93;54.87;100256.78;5091975;28;20031;-72
2023/10/03 07:46:30;;;;;;;9.73;7.70;;;;;;;25.94;54.61;100254.00;5091798;28;20045;-72
2023/10/03 07:48:56;;;;;;;10.75;8.40;;;;;;;25.91;54.52;100258.72;5090198;28;20024;-72
2023/10/03 07:51:29;;;;;;;9.68;7.95;;;;;;;25.95;54.60;100265.56;5091886;28;20403;-71
2023/10/03 07:53:55;;;;;;;9.95;7.93;;;;;;;25.98;54.43;100260.00;5091757;28;20024;-72
2023/10/03 07:56:30;;;;;;;11.55;7.78;;;;;;;25.93;54.66;100276.38;5090576;28;20034;-70
2023/10/03 07:58:56;;;;;;;9.50;7.70;;;;;;;25.95;54.45;100270.91;5091715;28;20037;-71
2023/10/03 08:01:26;;;;;;;11.50;7.75;;;;;;;25.94;54.38;100278.06;5092028;28;20059;-71
2023/10/03 08:03:55;;;;;;;9.02;7.28;;;;;;;25.96;54.56;100273.47;5095403;28;20048;-71
2023/10/03 08:06:23;;;;;;;11.07;8.45;;;;;;;25.95;54.52;100277.09;5094391;28;20024;-72
2023/10/03 08:09:00;;;;;;;9.07;7.32;;;;;;;25.96;54.21;100283.31;5095734;28;20081;-71
2023/10/03 08:11:30;;;;;;;8.77;7.72;;;;;;;25.97;54.12;100280.53;5095678;28;20117;-72
2023/10/03 08:13:56;;;;;;;9.57;7.60;;;;;;;25.95;54.47;100281.59;5095598;28;20028;-72
2023/10/03 08:16:22;;;;;;;9.70;8.00;;;;;;;25.96;54.07;100284.16;5095603;28;20028;-72
2023/10/03 08:18:57;;;;;;;9.45;7.60;;;;;;;25.93;54.29;100289.72;5095424;28;20392;-71
2023/10/03 08:21:24;;;;;;;9.73;7.80;;;;;;;25.94;54.10;100298.59;5095541;28;20046;-72
2023/10/03 08:23:51;;;;;;;9.52;7.20;;;;;;;25.91;54.71;100310.34;5095322;28;20039;-71
2023/10/03 08:26:17;;;;;;;9.63;7.30;;;;;;;25.91;54.31;100313.03;5095405;28;20031;-71
2023/10/03 08:28:42;;;;;;;9.45;7.97;;;;;;;25.91;54.19;100310.34;5095298;28;20023;-71
2023/10/03 08:31:09;;;;;;;8.18;6.97;;;;;;;25.94;54.02;100320.84;5095078;28;20028;-71
2023/10/03 08:33:37;;;;;;;8.98;7.13;;;;;;;25.93;54.01;100318.28;5095028;28;20095;-72
2023/10/03 08:36:14;;;;;;;8.45;7.00;;;;;;;25.90;54.24;100316.66;5095036;28;20478;-70
2023/10/03 08:38:43;;;;;;;7.90;6.47;;;;;;;25.92;54.54;100325.47;5095131;28;20107;-71
2023/10/03 08:41:13;;;;;;;8.50;6.93;;;;;;;25.93;54.19;100321.81;5095180;28;20027;-71
2023/10/03 08:43:39;;;;;;;9.30;7.53;;;;;;;25.92;54.49;100325.47;5094856;28;20056;-71
2023/10/03 08:46:10;;;;;;;9.25;7.55;;;;;;;25.93;53.94;100327.16;5094820;28;20071;-71
2023/10/03 08:48:43;;;;;;;10.48;7.45;;;;;;;25.91;54.03;100326.41;5094866;28;20457;-71
2023/10/03 08:51:13;;;;;;;9.65;7.30;;;;;;;25.93;54.09;100334.31;5094744;28;20468;-72
2023/10/03 08:53:40;;;;;;;9.32;7.10;;;;;;;25.92;54.34;100336.16;5095030;28;20388;-72
2023/10/03 08:56:08;;;;;;;7.68;6.85;;;;;;;25.94;53.90;100339.56;5095019;28;20031;-72
2023/10/03 08:58:34;;;;;;;9.57;7.10;;;;;;;25.93;54.21;100343.22;5094796;28;20028;-71
2023/10/03 09:01:02;;;;;;;9.18;7.20;;;;;;;25.94;53.78;100339.56;5106649;28;20088;-72
2023/10/03 09:03:47;;;;;;;9.25;6.68;;;;;;;25.93;54.16;100351.22;5094424;28;20036;-71
2023/10/03 09:06:20;;;;;;;9.77;7.03;;;;;;;25.96;54.08;100342.16;5094777;28;20028;-72
2023/10/03 09:08:50;;;;;;;9.50;6.95;;;;;;;25.93;53.95;100345.88;5094890;28;20110;-71
2023/10/03 09:11:18;;;;;;;8.60;7.13;;;;;;;25.93;54.33;100348.56;5094477;28;20027;-71
2023/10/03 09:13:47;;;;;;;9.73;7.15;;;;;;;25.92;54.21;100349.53;5093358;28;20028;-70
2023/10/03 09:16:15;;;;;;;8.55;6.47;;;;;;;25.93;54.11;100348.56;5094058;28;20031;-72
2023/10/03 09:18:41;;;;;;;9.88;7.35;;;;;;;25.95;53.72;100354.66;5093034;28;20174;-71
2023/10/03 09:21:15;;;;;;;8.32;6.40;;;;;;;25.93;53.76;100351.22;5094221;28;20055;-72
2023/10/03 09:24:09;;;;;;;9.00;6.78;;;;;;;25.95;53.65;100351.13;5094372;28;20058;-72
2023/10/03 09:26:51;;;;;;;8.38;6.18;;;;;;;25.93;53.97;100353.91;5094223;28;20377;-72
2023/10/03 09:29:30;;;;;;;7.82;6.43;;;;;;;25.91;54.17;100355.81;5094313;28;20081;-71
2023/10/03 09:32:16;;;;;;;9.23;6.82;;;;;;;25.90;53.91;100358.59;5093673;28;20476;-71
2023/10/03 09:34:43;;;;;;;8.25;6.50;;;;;;;25.92;53.76;100360.22;5094344;28;20440;-71
2023/10/03 09:37:08;;;;;;;8.35;6.72;;;;;;;25.94;53.94;100357.41;5093981;28;20028;-72
2023/10/03 09:39:51;;;;;;;7.80;6.30;;;;;;;25.95;53.68;100357.31;5094128;28;20036;-71
2023/10/03 09:42:18;;;;;;;8.85;6.97;;;;;;;25.95;53.86;100360.00;5094131;28;20043;-70
2023/10/03 09:44:46;;;;;;;9.23;7.05;;;;;;;25.96;53.63;100361.69;5093543;28;20028;-70
2023/10/03 09:47:19;;;;;;;9.45;6.97;;;;;;;25.96;53.89;100364.38;5093831;28;20028;-72
2023/10/03 09:49:46;;;;;;;7.28;5.90;;;;;;;25.97;53.79;100355.41;5094005;28;20022;-71
2023/10/03 09:52:26;;;;;;;7.80;6.20;;;;;;;25.97;53.44;100358.09;5093538;28;20024;-72
2023/10/03 09:54:59;;;;;;;8.23;5.97;;;;;;;25.98;53.66;100356.25;5093812;28;20031;-71
2023/10/03 09:57:28;;;;;;;7.82;6.43;;;;;;;25.97;53.80;100352.75;5093774;28;20103;-71
2023/10/03 09:59:55;;;;;;;7.38;5.60;;;;;;;25.96;53.83;100355.50;5093391;28;20028;-71
2023/10/03 10:02:31;;;;;;;7.30;5.93;;;;;;;25.98;53.82;100356.25;5093477;28;20110;-72
2023/10/03 10:04:59;;;;;;;8.05;5.93;;;;;;;25.98;53.46;100357.13;5093625;28;20068;-71
2023/10/03 10:07:34;;;;;;;8.50;6.05;;;;;;;25.98;53.43;100350.91;5091740;28;20093;-71
2023/10/03 10:10:14;;;;;;;7.78;5.97;;;;;;;26.00;53.42;100348.97;5093458;28;20032;-71
2023/10/03 10:13:12;;;;;;;8.10;6.60;;;;;;;26.03;53.42;100350.56;5093577;28;20060;-71
2023/10/03 10:16:00;;;;;;;8.73;7.07;;;;;;;26.00;53.58;100344.50;5093029;28;20027;-71
2023/10/03 10:18:44;;;;;;;8.68;6.15;;;;;;;26.03;53.35;100345.22;5091664;28;20107;-71
2023/10/03 10:21:22;;;;;;;7.45;5.88;;;;;;;26.03;53.34;100340.75;5093288;28;20020;-71
2023/10/03 10:24:15;;;;;;;8.40;5.93;;;;;;;26.03;53.59;100347.91;5092996;28;20127;-71
2023/10/03 10:27:04;;;;;;;7.78;6.28;;;;;;;26.01;53.57;100346.19;5092963;28;20492;-71
2023/10/03 10:29:34;;;;;;;7.38;6.05;;;;;;;26.01;53.55;100340.84;5092799;28;20044;-72
2023/10/03 10:32:15;;;;;;;7.10;5.70;;;;;;;26.02;53.66;100336.38;5092887;28;20043;-71
2023/10/03 10:34:46;;;;;;;7.80;5.82;;;;;;;26.01;53.33;100335.50;5093086;28;20059;-69
2023/10/03 10:37:15;;;;;;;8.15;6.22;;;;;;;26.01;53.29;100330.16;5092914;28;20028;-72
2023/10/03 10:40:17;;;;;;;8.15;6.03;;;;;;;26.03;53.34;100342.56;5092810;28;20024;-72
2023/10/03 10:43:04;;;;;;;8.02;5.63;;;;;;;26.04;53.38;100344.28;5079576;28;20102;-72
2023/10/03 10:45:40;;;;;;;8.70;6.03;;;;;;;26.05;53.69;100340.66;5092628;28;20024;-72
2023/10/03 10:48:06;;;;;;;7.35;5.10;;;;;;;26.04;53.50;100347.81;5092905;28;20028;-72
2023/10/03 10:51:07;;;;;;;8.07;5.72;;;;;;;26.04;53.44;100344.28;5092706;28;20024;-71
2023/10/03 10:53:47;;;;;;;7.43;5.43;;;;;;;26.04;53.14;100341.63;5010348;28;20050;-71
2023/10/03 10:56:13;;;;;;;8.70;5.60;;;;;;;26.05;53.50;100352.19;5010497;28;20518;-71
2023/10/03 10:59:10;;;;;;;8.48;5.68;;;;;;;26.06;53.21;100345.03;5010060;28;20026;-72
2023/10/03 11:01:39;;;;;;;8.43;5.80;;;;;;;26.06;53.26;100339.69;5010262;28;20033;-72
2023/10/03 11:04:05;;;;;;;7.05;5.05;;;;;;;26.06;53.24;100345.91;5010099;28;20046;-71
2023/10/03 11:06:31;;;;;;;8.13;6.07;;;;;;;26.06;53.36;100350.38;5010553;28;20548;-71
2023/10/03 11:08:57;;;;;;;8.43;5.32;;;;;;;26.07;53.45;100352.09;5026229;28;20034;-71
2023/10/03 11:11:34;;;;;;;6.47;4.97;;;;;;;26.07;53.18;100349.41;5009540;28;20065;-72
2023/10/03 11:13:59;;;;;;;8.88;5.60;;;;;;;26.08;53.20;100340.44;5010031;28;20030;-72
2023/10/03 11:16:27;;;;;;;6.57;5.38;;;;;;;26.08;53.38;100351.13;5010287;28;20141;-72
2023/10/03 11:18:54;;;;;;;7.72;5.57;;;;;;;26.08;53.09;100349.31;5010054;28;20510;-71
2023/10/03 11:21:22;;;;;;;6.40;4.72;;;;;;;26.08;53.51;100352.00;5010157;28;20221;-72
2023/10/03 11:24:07;;;;;;;6.40;5.35;;;;;;;26.10;53.22;100352.72;5009994;28;20041;-72
2023/10/03 11:26:46;;;;;;;6.95;5.25;;;;;;;26.11;53.51;100350.94;5009763;28;20030;-72
2023/10/03 11:29:14;;;;;;;7.75;5.57;;;;;;;26.11;53.09;100345.56;5054972;28;20065;-72
2023/10/03 11:31:40;;;;;;;7.68;5.38;;;;;;;26.11;53.23;100351.75;5092053;28;20028;-71
2023/10/03 11:34:06;;;;;;;6.80;4.93;;;;;;;26.10;53.06;100346.53;5092303;28;20043;-72
2023/10/03 11:36:43;;;;;;;7.75;5.22;;;;;;;26.11;53.35;100351.75;5090045;28;20483;-72